sensor_id;sensor_type;location;lat;lon;timestamp;P1;durP1;ratioP1;P2;durP2;ratioP2
3211;SDS011;1618;47.056;15.472;2023-12-28T00:00:32;20.00;;;19.10;;
3211;SDS011;1618;47.056;15.472;2023-12-28T00:03:20;20.50;;;19.60;;
3211;SDS011;1618;47.056;15.472;2023-12-28T00:06:15;19.50;;;18.60;;
3211;SDS011;1618;47.056;15.472;2023-12-28T00:08:59;19.47;;;18.57;;
3211;SDS011;1618;47.056;15.472;2023-12-28T00:11:47;18.20;;;17.40;;
3211;SDS011;1618;47.056;15.472;2023-12-28T00:14:24;18.60;;;17.80;;
3211;SDS011;1618;47.056;15.472;2023-12-28T00:17:16;17.50;;;16.70;;
3211;SDS011;1618;47.056;15.472;2023-12-28T00:30:44;15.30;;;14.70;;
3211;SDS011;1618;47.056;15.472;2023-12-28T00:33:35;15.10;;;14.50;;
3211;SDS011;1618;47.056;15.472;2023-12-28T00:36:03;15.80;;;15.10;;
3211;SDS011;1618;47.056;15.472;2023-12-28T00:38:31;15.63;;;14.93;;
3211;SDS011;1618;47.056;15.472;2023-12-28T00:41:01;17.00;;;16.30;;
3211;SDS011;1618;47.056;15.472;2023-12-28T00:43:29;16.67;;;15.97;;
3211;SDS011;1618;47.056;15.472;2023-12-28T00:45:58;16.80;;;16.10;;
3211;SDS011;1618;47.056;15.472;2023-12-28T00:48:26;17.27;;;16.47;;
3211;SDS011;1618;47.056;15.472;2023-12-28T00:50:55;18.07;;;17.27;;
3211;SDS011;1618;47.056;15.472;2023-12-28T00:53:24;16.63;;;15.93;;
3211;SDS011;1618;47.056;15.472;2023-12-28T00:55:52;17.10;;;16.40;;
3211;SDS011;1618;47.056;15.472;2023-12-28T00:58:20;18.37;;;17.57;;
3211;SDS011;1618;47.056;15.472;2023-12-28T01:00:49;17.20;;;16.50;;
3211;SDS011;1618;47.056;15.472;2023-12-28T01:03:21;18.03;;;17.23;;
3211;SDS011;1618;47.056;15.472;2023-12-28T01:05:49;18.20;;;17.40;;
3211;SDS011;1618;47.056;15.472;2023-12-28T01:08:18;18.30;;;17.50;;
3211;SDS011;1618;47.056;15.472;2023-12-28T01:10:45;18.00;;;17.20;;
3211;SDS011;1618;47.056;15.472;2023-12-28T01:13:18;18.67;;;17.87;;
3211;SDS011;1618;47.056;15.472;2023-12-28T01:15:46;18.30;;;17.50;;
3211;SDS011;1618;47.056;15.472;2023-12-28T01:18:15;19.00;;;18.20;;
3211;SDS011;1618;47.056;15.472;2023-12-28T01:20:45;18.80;;;18.00;;
3211;SDS011;1618;47.056;15.472;2023-12-28T01:23:13;20.10;;;19.20;;
3211;SDS011;1618;47.056;15.472;2023-12-28T01:25:40;19.80;;;18.90;;
3211;SDS011;1618;47.056;15.472;2023-12-28T01:28:07;20.20;;;19.30;;
3211;SDS011;1618;47.056;15.472;2023-12-28T01:30:35;20.17;;;19.27;;
3211;SDS011;1618;47.056;15.472;2023-12-28T01:33:03;20.57;;;19.67;;
3211;SDS011;1618;47.056;15.472;2023-12-28T01:35:33;20.07;;;19.17;;
3211;SDS011;1618;47.056;15.472;2023-12-28T01:38:01;18.90;;;18.00;;
3211;SDS011;1618;47.056;15.472;2023-12-28T01:40:29;18.83;;;18.03;;
3211;SDS011;1618;47.056;15.472;2023-12-28T01:42:56;19.00;;;18.20;;
3211;SDS011;1618;47.056;15.472;2023-12-28T01:45:23;18.70;;;17.90;;
3211;SDS011;1618;47.056;15.472;2023-12-28T01:47:53;18.93;;;18.13;;
3211;SDS011;1618;47.056;15.472;2023-12-28T01:50:20;19.30;;;18.50;;
3211;SDS011;1618;47.056;15.472;2023-12-28T01:52:58;19.50;;;18.70;;
3211;SDS011;1618;47.056;15.472;2023-12-28T01:55:34;18.70;;;17.90;;
3211;SDS011;1618;47.056;15.472;2023-12-28T01:58:05;17.97;;;17.20;;
3211;SDS011;1618;47.056;15.472;2023-12-28T02:00:32;17.17;;;16.47;;
3211;SDS011;1618;47.056;15.472;2023-12-28T02:03:03;16.60;;;15.90;;
3211;SDS011;1618;47.056;15.472;2023-12-28T02:05:36;18.00;;;17.20;;
3211;SDS011;1618;47.056;15.472;2023-12-28T02:08:05;17.40;;;16.60;;
3211;SDS011;1618;47.056;15.472;2023-12-28T02:10:33;16.90;;;16.20;;
3211;SDS011;1618;47.056;15.472;2023-12-28T02:13:03;17.07;;;16.37;;
3211;SDS011;1618;47.056;15.472;2023-12-28T02:15:31;17.33;;;16.63;;
3211;SDS011;1618;47.056;15.472;2023-12-28T02:17:59;16.90;;;16.20;;
3211;SDS011;1618;47.056;15.472;2023-12-28T02:20:28;16.87;;;16.17;;
3211;SDS011;1618;47.056;15.472;2023-12-28T02:22:57;16.70;;;16.00;;
3211;SDS011;1618;47.056;15.472;2023-12-28T02:25:26;17.40;;;16.63;;
3211;SDS011;1618;47.056;15.472;2023-12-28T02:27:53;16.60;;;15.90;;
3211;SDS011;1618;47.056;15.472;2023-12-28T02:30:21;16.90;;;16.20;;
3211;SDS011;1618;47.056;15.472;2023-12-28T02:32:54;17.50;;;16.70;;
3211;SDS011;1618;47.056;15.472;2023-12-28T02:35:23;18.47;;;17.67;;
3211;SDS011;1618;47.056;15.472;2023-12-28T02:37:53;19.40;;;18.60;;
3211;SDS011;1618;47.056;15.472;2023-12-28T02:40:25;19.60;;;18.70;;
3211;SDS011;1618;47.056;15.472;2023-12-28T02:42:55;19.20;;;18.40;;
3211;SDS011;1618;47.056;15.472;2023-12-28T02:45:22;19.23;;;18.40;;
3211;SDS011;1618;47.056;15.472;2023-12-28T02:47:51;19.90;;;19.00;;
3211;SDS011;1618;47.056;15.472;2023-12-28T02:50:20;19.40;;;18.60;;
3211;SDS011;1618;47.056;15.472;2023-12-28T02:52:49;19.77;;;18.87;;
3211;SDS011;1618;47.056;15.472;2023-12-28T02:55:17;19.90;;;19.00;;
3211;SDS011;1618;47.056;15.472;2023-12-28T02:57:50;19.80;;;18.90;;
3211;SDS011;1618;47.056;15.472;2023-12-28T03:00:22;21.10;;;20.20;;
3211;SDS011;1618;47.056;15.472;2023-12-28T03:02:53;21.23;;;20.23;;
3211;SDS011;1618;47.056;15.472;2023-12-28T03:05:41;22.10;;;21.10;;
3211;SDS011;1618;47.056;15.472;2023-12-28T03:08:23;22.03;;;21.03;;
3211;SDS011;1618;47.056;15.472;2023-12-28T03:11:10;21.97;;;20.97;;
3211;SDS011;1618;47.056;15.472;2023-12-28T03:13:51;21.87;;;20.87;;
3211;SDS011;1618;47.056;15.472;2023-12-28T03:16:35;19.77;;;18.90;;
3211;SDS011;1618;47.056;15.472;2023-12-28T03:19:05;21.03;;;20.13;;
3211;SDS011;1618;47.056;15.472;2023-12-28T03:21:47;21.40;;;20.50;;
3211;SDS011;1618;47.056;15.472;2023-12-28T03:24:16;20.77;;;19.87;;
3211;SDS011;1618;47.056;15.472;2023-12-28T03:33:23;20.30;;;19.40;;
3211;SDS011;1618;47.056;15.472;2023-12-28T03:36:07;20.10;;;19.20;;
3211;SDS011;1618;47.056;15.472;2023-12-28T03:38:43;20.23;;;19.33;;
3211;SDS011;1618;47.056;15.472;2023-12-28T03:41:21;20.70;;;19.80;;
3211;SDS011;1618;47.056;15.472;2023-12-28T03:44:19;20.20;;;19.30;;
3211;SDS011;1618;47.056;15.472;2023-12-28T03:47:05;19.70;;;18.80;;
3211;SDS011;1618;47.056;15.472;2023-12-28T03:52:35;20.73;;;19.83;;
3211;SDS011;1618;47.056;15.472;2023-12-28T03:55:49;20.60;;;19.70;;
3211;SDS011;1618;47.056;15.472;2023-12-28T03:58:25;19.80;;;18.90;;
3211;SDS011;1618;47.056;15.472;2023-12-28T04:04:17;18.60;;;17.80;;
3211;SDS011;1618;47.056;15.472;2023-12-28T04:06:45;19.57;;;18.67;;
3211;SDS011;1618;47.056;15.472;2023-12-28T04:09:19;19.60;;;18.70;;
3211;SDS011;1618;47.056;15.472;2023-12-28T04:11:57;19.50;;;18.60;;
3211;SDS011;1618;47.056;15.472;2023-12-28T04:14:26;19.70;;;18.80;;
3211;SDS011;1618;47.056;15.472;2023-12-28T04:16:55;19.27;;;18.47;;
3211;SDS011;1618;47.056;15.472;2023-12-28T04:19:23;18.77;;;17.97;;
3211;SDS011;1618;47.056;15.472;2023-12-28T04:21:54;17.70;;;16.90;;
3211;SDS011;1618;47.056;15.472;2023-12-28T04:24:24;18.60;;;17.80;;
3211;SDS011;1618;47.056;15.472;2023-12-28T04:26:52;17.90;;;17.10;;
3211;SDS011;1618;47.056;15.472;2023-12-28T04:29:20;18.50;;;17.70;;
3211;SDS011;1618;47.056;15.472;2023-12-28T04:31:47;18.20;;;17.40;;
3211;SDS011;1618;47.056;15.472;2023-12-28T04:34:16;18.83;;;18.03;;
3211;SDS011;1618;47.056;15.472;2023-12-28T04:36:44;18.17;;;17.37;;
3211;SDS011;1618;47.056;15.472;2023-12-28T04:39:11;18.50;;;17.70;;
3211;SDS011;1618;47.056;15.472;2023-12-28T04:41:41;19.53;;;18.73;;
3211;SDS011;1618;47.056;15.472;2023-12-28T04:44:10;19.20;;;18.40;;
3211;SDS011;1618;47.056;15.472;2023-12-28T04:46:38;19.77;;;18.97;;
3211;SDS011;1618;47.056;15.472;2023-12-28T04:49:07;19.50;;;18.70;;
3211;SDS011;1618;47.056;15.472;2023-12-28T04:51:41;18.97;;;18.17;;
3211;SDS011;1618;47.056;15.472;2023-12-28T04:54:10;20.23;;;19.33;;
3211;SDS011;1618;47.056;15.472;2023-12-28T04:56:39;20.30;;;19.40;;
3211;SDS011;1618;47.056;15.472;2023-12-28T04:59:08;20.57;;;19.67;;
3211;SDS011;1618;47.056;15.472;2023-12-28T05:01:40;19.50;;;18.70;;
3211;SDS011;1618;47.056;15.472;2023-12-28T05:04:10;20.00;;;19.10;;
3211;SDS011;1618;47.056;15.472;2023-12-28T05:06:38;19.10;;;18.30;;
3211;SDS011;1618;47.056;15.472;2023-12-28T05:09:06;21.70;;;20.70;;
3211;SDS011;1618;47.056;15.472;2023-12-28T05:11:35;21.27;;;20.37;;
3211;SDS011;1618;47.056;15.472;2023-12-28T05:14:04;21.40;;;20.50;;
3211;SDS011;1618;47.056;15.472;2023-12-28T05:16:33;21.57;;;20.60;;
3211;SDS011;1618;47.056;15.472;2023-12-28T05:19:05;21.00;;;20.10;;
3211;SDS011;1618;47.056;15.472;2023-12-28T05:21:34;21.80;;;20.80;;
3211;SDS011;1618;47.056;15.472;2023-12-28T05:24:02;21.50;;;20.60;;
3211;SDS011;1618;47.056;15.472;2023-12-28T05:26:30;20.87;;;19.97;;
3211;SDS011;1618;47.056;15.472;2023-12-28T05:28:59;21.73;;;20.80;;
3211;SDS011;1618;47.056;15.472;2023-12-28T05:31:26;21.20;;;20.30;;
3211;SDS011;1618;47.056;15.472;2023-12-28T05:33:55;21.27;;;20.37;;
3211;SDS011;1618;47.056;15.472;2023-12-28T05:36:23;20.80;;;19.90;;
3211;SDS011;1618;47.056;15.472;2023-12-28T05:38:50;20.80;;;19.90;;
3211;SDS011;1618;47.056;15.472;2023-12-28T05:41:23;19.70;;;18.83;;
3211;SDS011;1618;47.056;15.472;2023-12-28T05:43:51;19.97;;;19.07;;
3211;SDS011;1618;47.056;15.472;2023-12-28T05:46:19;19.63;;;18.80;;
3211;SDS011;1618;47.056;15.472;2023-12-28T05:48:48;19.70;;;18.90;;
3211;SDS011;1618;47.056;15.472;2023-12-28T05:51:17;19.83;;;19.00;;
3211;SDS011;1618;47.056;15.472;2023-12-28T05:53:46;20.43;;;19.53;;
3211;SDS011;1618;47.056;15.472;2023-12-28T05:56:14;20.23;;;19.33;;
3211;SDS011;1618;47.056;15.472;2023-12-28T05:58:42;20.30;;;19.40;;
3211;SDS011;1618;47.056;15.472;2023-12-28T06:01:10;19.77;;;18.97;;
3211;SDS011;1618;47.056;15.472;2023-12-28T06:03:37;20.20;;;19.40;;
3211;SDS011;1618;47.056;15.472;2023-12-28T06:06:04;19.93;;;19.13;;
3211;SDS011;1618;47.056;15.472;2023-12-28T06:08:34;19.70;;;18.90;;
3211;SDS011;1618;47.056;15.472;2023-12-28T06:11:03;19.10;;;18.30;;
3211;SDS011;1618;47.056;15.472;2023-12-28T06:13:30;17.70;;;17.00;;
3211;SDS011;1618;47.056;15.472;2023-12-28T06:15:58;18.73;;;17.93;;
3211;SDS011;1618;47.056;15.472;2023-12-28T06:18:25;18.17;;;17.47;;
3211;SDS011;1618;47.056;15.472;2023-12-28T06:20:54;18.20;;;17.50;;
3211;SDS011;1618;47.056;15.472;2023-12-28T06:23:21;18.07;;;17.37;;
3211;SDS011;1618;47.056;15.472;2023-12-28T06:25:51;22.77;;;21.77;;
3211;SDS011;1618;47.056;15.472;2023-12-28T06:28:22;22.80;;;21.80;;
3211;SDS011;1618;47.056;15.472;2023-12-28T06:30:57;21.77;;;20.87;;
3211;SDS011;1618;47.056;15.472;2023-12-28T06:33:27;23.63;;;22.63;;
3211;SDS011;1618;47.056;15.472;2023-12-28T06:35:54;24.00;;;23.00;;
3211;SDS011;1618;47.056;15.472;2023-12-28T06:38:24;24.87;;;23.77;;
3211;SDS011;1618;47.056;15.472;2023-12-28T06:40:52;24.10;;;23.10;;
3211;SDS011;1618;47.056;15.472;2023-12-28T06:43:20;22.90;;;21.90;;
3211;SDS011;1618;47.056;15.472;2023-12-28T06:45:48;22.50;;;21.60;;
3211;SDS011;1618;47.056;15.472;2023-12-28T06:48:20;23.03;;;22.03;;
3211;SDS011;1618;47.056;15.472;2023-12-28T06:50:48;23.00;;;22.00;;
3211;SDS011;1618;47.056;15.472;2023-12-28T06:53:16;21.40;;;20.50;;
3211;SDS011;1618;47.056;15.472;2023-12-28T06:55:44;21.00;;;20.10;;
3211;SDS011;1618;47.056;15.472;2023-12-28T06:58:13;20.97;;;20.07;;
3211;SDS011;1618;47.056;15.472;2023-12-28T07:00:41;19.87;;;19.07;;
3211;SDS011;1618;47.056;15.472;2023-12-28T07:03:09;18.80;;;18.00;;
3211;SDS011;1618;47.056;15.472;2023-12-28T07:05:36;17.47;;;16.77;;
3211;SDS011;1618;47.056;15.472;2023-12-28T07:08:04;18.00;;;17.30;;
3211;SDS011;1618;47.056;15.472;2023-12-28T07:10:33;19.03;;;18.23;;
3211;SDS011;1618;47.056;15.472;2023-12-28T07:13:04;18.47;;;17.70;;
3211;SDS011;1618;47.056;15.472;2023-12-28T07:15:32;19.40;;;18.60;;
3211;SDS011;1618;47.056;15.472;2023-12-28T07:18:01;19.47;;;18.67;;
3211;SDS011;1618;47.056;15.472;2023-12-28T07:20:29;19.50;;;18.70;;
3211;SDS011;1618;47.056;15.472;2023-12-28T07:22:58;19.33;;;18.53;;
3211;SDS011;1618;47.056;15.472;2023-12-28T07:25:26;19.47;;;18.67;;
3211;SDS011;1618;47.056;15.472;2023-12-28T07:27:56;18.17;;;17.47;;
3211;SDS011;1618;47.056;15.472;2023-12-28T07:30:23;18.77;;;17.97;;
3211;SDS011;1618;47.056;15.472;2023-12-28T07:32:51;20.03;;;19.23;;
3211;SDS011;1618;47.056;15.472;2023-12-28T07:35:20;20.63;;;19.73;;
3211;SDS011;1618;47.056;15.472;2023-12-28T07:37:48;21.30;;;20.40;;
3211;SDS011;1618;47.056;15.472;2023-12-28T07:40:16;20.60;;;19.70;;
3211;SDS011;1618;47.056;15.472;2023-12-28T07:42:44;21.47;;;20.57;;
3211;SDS011;1618;47.056;15.472;2023-12-28T07:45:11;20.80;;;19.90;;
3211;SDS011;1618;47.056;15.472;2023-12-28T07:47:39;20.53;;;19.63;;
3211;SDS011;1618;47.056;15.472;2023-12-28T07:50:09;21.80;;;20.90;;
3211;SDS011;1618;47.056;15.472;2023-12-28T07:52:39;20.97;;;20.07;;
3211;SDS011;1618;47.056;15.472;2023-12-28T07:55:06;21.80;;;20.90;;
3211;SDS011;1618;47.056;15.472;2023-12-28T07:57:34;24.20;;;23.20;;
3211;SDS011;1618;47.056;15.472;2023-12-28T08:00:02;21.70;;;20.80;;
3211;SDS011;1618;47.056;15.472;2023-12-28T08:02:35;20.30;;;19.40;;
3211;SDS011;1618;47.056;15.472;2023-12-28T08:05:03;19.63;;;18.83;;
3211;SDS011;1618;47.056;15.472;2023-12-28T08:07:33;19.10;;;18.30;;
3211;SDS011;1618;47.056;15.472;2023-12-28T08:10:01;19.77;;;18.97;;
3211;SDS011;1618;47.056;15.472;2023-12-28T08:12:29;19.50;;;18.70;;
3211;SDS011;1618;47.056;15.472;2023-12-28T08:14:58;19.07;;;18.27;;
3211;SDS011;1618;47.056;15.472;2023-12-28T08:17:26;18.77;;;17.97;;
3211;SDS011;1618;47.056;15.472;2023-12-28T08:19:54;19.03;;;18.23;;
3211;SDS011;1618;47.056;15.472;2023-12-28T08:22:25;18.10;;;17.37;;
3211;SDS011;1618;47.056;15.472;2023-12-28T08:24:54;18.60;;;17.80;;
3211;SDS011;1618;47.056;15.472;2023-12-28T08:27:22;18.27;;;17.50;;
3211;SDS011;1618;47.056;15.472;2023-12-28T08:29:50;16.80;;;16.10;;
3211;SDS011;1618;47.056;15.472;2023-12-28T08:32:17;17.33;;;16.63;;
3211;SDS011;1618;47.056;15.472;2023-12-28T08:34:45;18.07;;;17.33;;
3211;SDS011;1618;47.056;15.472;2023-12-28T08:37:14;18.80;;;18.00;;
3211;SDS011;1618;47.056;15.472;2023-12-28T08:39:41;17.90;;;17.20;;
3211;SDS011;1618;47.056;15.472;2023-12-28T08:42:11;17.20;;;16.50;;
3211;SDS011;1618;47.056;15.472;2023-12-28T08:44:39;17.73;;;17.03;;
3211;SDS011;1618;47.056;15.472;2023-12-28T08:47:13;18.13;;;17.33;;
3211;SDS011;1618;47.056;15.472;2023-12-28T08:49:40;17.80;;;17.00;;
3211;SDS011;1618;47.056;15.472;2023-12-28T08:52:08;18.20;;;17.40;;
3211;SDS011;1618;47.056;15.472;2023-12-28T08:54:37;18.30;;;17.50;;
3211;SDS011;1618;47.056;15.472;2023-12-28T08:57:04;17.23;;;16.53;;
3211;SDS011;1618;47.056;15.472;2023-12-28T08:59:36;17.43;;;16.73;;
3211;SDS011;1618;47.056;15.472;2023-12-28T09:02:04;17.17;;;16.47;;
3211;SDS011;1618;47.056;15.472;2023-12-28T09:04:33;18.37;;;17.57;;
3211;SDS011;1618;47.056;15.472;2023-12-28T09:07:00;18.50;;;17.70;;
3211;SDS011;1618;47.056;15.472;2023-12-28T09:09:28;17.57;;;16.87;;
3211;SDS011;1618;47.056;15.472;2023-12-28T09:11:55;17.60;;;16.90;;
3211;SDS011;1618;47.056;15.472;2023-12-28T09:14:24;17.70;;;17.00;;
3211;SDS011;1618;47.056;15.472;2023-12-28T09:16:53;17.50;;;16.80;;
3211;SDS011;1618;47.056;15.472;2023-12-28T09:19:21;17.73;;;17.03;;
3211;SDS011;1618;47.056;15.472;2023-12-28T09:21:50;17.20;;;16.50;;
3211;SDS011;1618;47.056;15.472;2023-12-28T09:24:19;16.57;;;15.87;;
3211;SDS011;1618;47.056;15.472;2023-12-28T09:26:46;17.47;;;16.77;;
3211;SDS011;1618;47.056;15.472;2023-12-28T09:29:18;16.00;;;15.30;;
3211;SDS011;1618;47.056;15.472;2023-12-28T09:31:50;15.53;;;14.93;;
3211;SDS011;1618;47.056;15.472;2023-12-28T09:34:20;20.03;;;19.13;;
3211;SDS011;1618;47.056;15.472;2023-12-28T09:36:48;28.70;;;27.10;;
3211;SDS011;1618;47.056;15.472;2023-12-28T09:39:16;30.13;;;28.43;;
3211;SDS011;1618;47.056;15.472;2023-12-28T09:41:46;33.40;;;31.40;;
3211;SDS011;1618;47.056;15.472;2023-12-28T09:44:16;33.07;;;30.97;;
3211;SDS011;1618;47.056;15.472;2023-12-28T09:46:46;34.13;;;31.93;;
3211;SDS011;1618;47.056;15.472;2023-12-28T09:49:16;35.07;;;32.87;;
3211;SDS011;1618;47.056;15.472;2023-12-28T09:51:47;36.63;;;34.23;;
3211;SDS011;1618;47.056;15.472;2023-12-28T09:54:19;36.07;;;33.67;;
3211;SDS011;1618;47.056;15.472;2023-12-28T09:56:47;35.13;;;32.83;;
3211;SDS011;1618;47.056;15.472;2023-12-28T09:59:16;36.10;;;33.70;;
3211;SDS011;1618;47.056;15.472;2023-12-28T10:01:45;36.90;;;34.50;;
3211;SDS011;1618;47.056;15.472;2023-12-28T10:04:12;36.60;;;34.20;;
3211;SDS011;1618;47.056;15.472;2023-12-28T10:06:42;35.47;;;33.13;;
3211;SDS011;1618;47.056;15.472;2023-12-28T10:09:11;35.50;;;33.20;;
3211;SDS011;1618;47.056;15.472;2023-12-28T10:11:39;35.73;;;33.33;;
3211;SDS011;1618;47.056;15.472;2023-12-28T10:14:11;37.27;;;34.67;;
3211;SDS011;1618;47.056;15.472;2023-12-28T10:16:49;35.90;;;33.40;;
3211;SDS011;1618;47.056;15.472;2023-12-28T10:19:26;35.63;;;33.13;;
3211;SDS011;1618;47.056;15.472;2023-12-28T10:22:07;38.20;;;35.60;;
3211;SDS011;1618;47.056;15.472;2023-12-28T10:24:46;34.93;;;32.47;;
3211;SDS011;1618;47.056;15.472;2023-12-28T10:27:16;35.70;;;33.30;;
3211;SDS011;1618;47.056;15.472;2023-12-28T10:29:58;35.43;;;32.83;;
3211;SDS011;1618;47.056;15.472;2023-12-28T10:39:02;34.27;;;31.57;;
3211;SDS011;1618;47.056;15.472;2023-12-28T12:05:33;36.57;;;33.77;;
3211;SDS011;1618;47.056;15.472;2023-12-28T12:08:02;36.30;;;33.50;;
3211;SDS011;1618;47.056;15.472;2023-12-28T12:10:29;35.70;;;32.90;;
3211;SDS011;1618;47.056;15.472;2023-12-28T12:12:58;35.93;;;32.93;;
3211;SDS011;1618;47.056;15.472;2023-12-28T12:15:28;36.60;;;33.60;;
3211;SDS011;1618;47.056;15.472;2023-12-28T12:17:56;34.80;;;31.90;;
3211;SDS011;1618;47.056;15.472;2023-12-28T12:20:24;34.30;;;31.30;;
3211;SDS011;1618;47.056;15.472;2023-12-28T12:22:58;35.80;;;32.80;;
3211;SDS011;1618;47.056;15.472;2023-12-28T12:25:28;34.17;;;31.27;;
3211;SDS011;1618;47.056;15.472;2023-12-28T12:27:58;34.67;;;31.67;;
3211;SDS011;1618;47.056;15.472;2023-12-28T12:30:26;35.20;;;32.20;;
3211;SDS011;1618;47.056;15.472;2023-12-28T12:32:53;36.50;;;33.50;;
3211;SDS011;1618;47.056;15.472;2023-12-28T12:35:20;35.60;;;32.60;;
3211;SDS011;1618;47.056;15.472;2023-12-28T12:37:49;34.40;;;31.50;;
3211;SDS011;1618;47.056;15.472;2023-12-28T12:40:18;34.60;;;31.60;;
3211;SDS011;1618;47.056;15.472;2023-12-28T12:42:56;34.70;;;31.70;;
3211;SDS011;1618;47.056;15.472;2023-12-28T12:45:23;33.93;;;30.93;;
3211;SDS011;1618;47.056;15.472;2023-12-28T12:47:51;34.80;;;31.90;;
3211;SDS011;1618;47.056;15.472;2023-12-28T12:50:18;34.60;;;31.60;;
3211;SDS011;1618;47.056;15.472;2023-12-28T12:52:46;35.47;;;32.40;;
3211;SDS011;1618;47.056;15.472;2023-12-28T12:55:17;34.83;;;31.73;;
3211;SDS011;1618;47.056;15.472;2023-12-28T12:57:45;34.37;;;31.37;;
3211;SDS011;1618;47.056;15.472;2023-12-28T13:00:14;36.60;;;33.60;;
3211;SDS011;1618;47.056;15.472;2023-12-28T13:02:42;36.50;;;33.50;;
3211;SDS011;1618;47.056;15.472;2023-12-28T13:05:11;35.33;;;32.43;;
3211;SDS011;1618;47.056;15.472;2023-12-28T13:07:40;34.70;;;31.80;;
3211;SDS011;1618;47.056;15.472;2023-12-28T13:10:11;33.10;;;30.20;;
3211;SDS011;1618;47.056;15.472;2023-12-28T13:12:41;33.47;;;30.67;;
3211;SDS011;1618;47.056;15.472;2023-12-28T13:15:09;33.87;;;30.97;;
3211;SDS011;1618;47.056;15.472;2023-12-28T13:17:38;32.60;;;29.70;;
3211;SDS011;1618;47.056;15.472;2023-12-28T13:20:06;32.70;;;29.80;;
3211;SDS011;1618;47.056;15.472;2023-12-28T13:22:35;32.40;;;29.50;;
3211;SDS011;1618;47.056;15.472;2023-12-28T13:25:04;32.20;;;29.30;;
3211;SDS011;1618;47.056;15.472;2023-12-28T13:27:32;32.17;;;29.27;;
3211;SDS011;1618;47.056;15.472;2023-12-28T13:30:07;31.70;;;28.80;;
3211;SDS011;1618;47.056;15.472;2023-12-28T13:32:36;31.90;;;29.00;;
3211;SDS011;1618;47.056;15.472;2023-12-28T13:35:04;32.60;;;29.90;;
3211;SDS011;1618;47.056;15.472;2023-12-28T13:37:32;35.10;;;32.20;;
3211;SDS011;1618;47.056;15.472;2023-12-28T13:40:00;34.20;;;31.30;;
3211;SDS011;1618;47.056;15.472;2023-12-28T13:42:29;35.00;;;32.10;;
3211;SDS011;1618;47.056;15.472;2023-12-28T13:44:56;34.40;;;31.50;;
3211;SDS011;1618;47.056;15.472;2023-12-28T13:47:26;34.60;;;31.70;;
3211;SDS011;1618;47.056;15.472;2023-12-28T13:49:59;33.60;;;30.80;;
3211;SDS011;1618;47.056;15.472;2023-12-28T13:52:27;33.90;;;31.00;;
3211;SDS011;1618;47.056;15.472;2023-12-28T13:54:56;34.60;;;31.70;;
3211;SDS011;1618;47.056;15.472;2023-12-28T14:00:28;32.97;;;30.07;;
3211;SDS011;1618;47.056;15.472;2023-12-28T14:02:58;30.97;;;28.17;;
3211;SDS011;1618;47.056;15.472;2023-12-28T14:05:25;30.77;;;27.87;;
3211;SDS011;1618;47.056;15.472;2023-12-28T14:07:57;31.00;;;28.10;;
3211;SDS011;1618;47.056;15.472;2023-12-28T14:10:32;32.27;;;29.57;;
3211;SDS011;1618;47.056;15.472;2023-12-28T14:13:05;32.73;;;30.13;;
3211;SDS011;1618;47.056;15.472;2023-12-28T14:15:45;32.03;;;29.43;;
3211;SDS011;1618;47.056;15.472;2023-12-28T14:18:16;31.10;;;28.60;;
3211;SDS011;1618;47.056;15.472;2023-12-28T14:20:49;31.37;;;28.77;;
3211;SDS011;1618;47.056;15.472;2023-12-28T14:23:21;27.90;;;25.60;;
3211;SDS011;1618;47.056;15.472;2023-12-28T14:25:49;32.50;;;29.90;;
3211;SDS011;1618;47.056;15.472;2023-12-28T14:28:21;32.30;;;29.80;;
3211;SDS011;1618;47.056;15.472;2023-12-28T14:31:02;32.73;;;30.13;;
3211;SDS011;1618;47.056;15.472;2023-12-28T14:33:31;32.60;;;30.10;;
3211;SDS011;1618;47.056;15.472;2023-12-28T14:36:00;32.37;;;30.07;;
3211;SDS011;1618;47.056;15.472;2023-12-28T14:38:28;32.80;;;30.50;;
3211;SDS011;1618;47.056;15.472;2023-12-28T14:40:57;32.00;;;29.70;;
3211;SDS011;1618;47.056;15.472;2023-12-28T14:43:34;31.70;;;29.40;;
3211;SDS011;1618;47.056;15.472;2023-12-28T14:46:03;32.27;;;29.87;;
3211;SDS011;1618;47.056;15.472;2023-12-28T14:48:33;31.90;;;29.50;;
3211;SDS011;1618;47.056;15.472;2023-12-28T14:51:02;32.33;;;29.93;;
3211;SDS011;1618;47.056;15.472;2023-12-28T14:53:29;32.30;;;29.90;;
3211;SDS011;1618;47.056;15.472;2023-12-28T14:55:57;31.40;;;29.10;;
3211;SDS011;1618;47.056;15.472;2023-12-28T14:58:26;31.20;;;28.90;;
3211;SDS011;1618;47.056;15.472;2023-12-28T15:00:55;31.17;;;28.97;;
3211;SDS011;1618;47.056;15.472;2023-12-28T15:03:24;31.50;;;29.30;;
3211;SDS011;1618;47.056;15.472;2023-12-28T15:05:55;31.67;;;29.47;;
3211;SDS011;1618;47.056;15.472;2023-12-28T15:08:24;30.80;;;28.70;;
3211;SDS011;1618;47.056;15.472;2023-12-28T15:10:58;31.90;;;29.70;;
3211;SDS011;1618;47.056;15.472;2023-12-28T15:13:26;32.20;;;30.00;;
3211;SDS011;1618;47.056;15.472;2023-12-28T15:15:54;32.57;;;30.37;;
3211;SDS011;1618;47.056;15.472;2023-12-28T15:18:22;32.10;;;29.90;;
3211;SDS011;1618;47.056;15.472;2023-12-28T15:20:49;33.00;;;30.80;;
3211;SDS011;1618;47.056;15.472;2023-12-28T15:23:18;33.00;;;30.80;;
3211;SDS011;1618;47.056;15.472;2023-12-28T15:25:48;32.90;;;30.70;;
3211;SDS011;1618;47.056;15.472;2023-12-28T15:28:15;33.77;;;31.57;;
3211;SDS011;1618;47.056;15.472;2023-12-28T15:30:44;34.50;;;32.30;;
3211;SDS011;1618;47.056;15.472;2023-12-28T15:33:12;34.60;;;32.40;;
3211;SDS011;1618;47.056;15.472;2023-12-28T15:35:40;32.40;;;30.40;;
3211;SDS011;1618;47.056;15.472;2023-12-28T15:38:09;32.00;;;30.10;;
3211;SDS011;1618;47.056;15.472;2023-12-28T15:40:43;31.87;;;29.97;;
3211;SDS011;1618;47.056;15.472;2023-12-28T15:43:12;31.23;;;29.33;;
3211;SDS011;1618;47.056;15.472;2023-12-28T15:45:40;32.40;;;30.50;;
3211;SDS011;1618;47.056;15.472;2023-12-28T15:48:07;32.33;;;30.43;;
3211;SDS011;1618;47.056;15.472;2023-12-28T15:50:34;32.30;;;30.50;;
3211;SDS011;1618;47.056;15.472;2023-12-28T15:53:02;31.10;;;29.30;;
3211;SDS011;1618;47.056;15.472;2023-12-28T15:55:31;31.50;;;29.70;;
3211;SDS011;1618;47.056;15.472;2023-12-28T15:58:01;31.70;;;29.90;;
3211;SDS011;1618;47.056;15.472;2023-12-28T16:00:29;31.60;;;29.80;;
3211;SDS011;1618;47.056;15.472;2023-12-28T16:02:58;30.40;;;28.70;;
3211;SDS011;1618;47.056;15.472;2023-12-28T16:05:30;29.97;;;28.30;;
3211;SDS011;1618;47.056;15.472;2023-12-28T16:07:58;28.70;;;27.10;;
3211;SDS011;1618;47.056;15.472;2023-12-28T16:10:31;29.30;;;27.70;;
3211;SDS011;1618;47.056;15.472;2023-12-28T16:13:02;30.60;;;28.90;;
3211;SDS011;1618;47.056;15.472;2023-12-28T16:15:39;30.27;;;28.57;;
3211;SDS011;1618;47.056;15.472;2023-12-28T16:18:14;29.90;;;28.30;;
3211;SDS011;1618;47.056;15.472;2023-12-28T16:20:42;27.92;;;26.33;;
3211;SDS011;1618;47.056;15.472;2023-12-28T16:23:11;31.07;;;29.37;;
3211;SDS011;1618;47.056;15.472;2023-12-28T16:25:47;29.57;;;27.97;;
3211;SDS011;1618;47.056;15.472;2023-12-28T16:28:19;29.50;;;27.90;;
3211;SDS011;1618;47.056;15.472;2023-12-28T16:30:48;29.50;;;27.90;;
3211;SDS011;1618;47.056;15.472;2023-12-28T16:33:16;29.37;;;27.67;;
3211;SDS011;1618;47.056;15.472;2023-12-28T16:35:44;29.47;;;27.77;;
3211;SDS011;1618;47.056;15.472;2023-12-28T16:38:13;30.40;;;28.60;;
3211;SDS011;1618;47.056;15.472;2023-12-28T16:40:40;29.30;;;27.60;;
3211;SDS011;1618;47.056;15.472;2023-12-28T16:43:09;28.73;;;27.03;;
3211;SDS011;1618;47.056;15.472;2023-12-28T16:45:39;29.80;;;28.10;;
3211;SDS011;1618;47.056;15.472;2023-12-28T16:48:07;29.60;;;27.90;;